Celebrity Equinox — 9HXD9 — position and weather

sailwx.info

Track history (hours):
 
Tides and Currents Weather Stations Pressure Air Temp Water Temp Dewpoint Dewpoint Depression Visibility Wind Speed Wind Dir Waves Ship Positions

Celebrity Equinox

Last reported at 2014-Oct-17 23:28 UTC. Time now 2014-Oct-22 03:11 UTC.
Position N 42°26' E 010°33'.

Length 317 m; draft 9 m.

Type: Ship. MMSI: 249667000.

Date/timePositionNaut miles runAvg speedWind from/ knotsBaromVisibWave heightAir tempDewpointWater temp
2014-Oct-17 23:28N 42°26' E 010°33'2713.2
2014-Oct-17 21:25N 42°43' E 010°04'2912.7
2014-Oct-17 19:08N 43°12' E 010°07'813.3
2014-Oct-17 18:33N 43°19' E 010°09'1212.5
2014-Oct-17 17:33N 43°31' E 010°14'3 3.1
2014-Oct-17 16:30N 43°33' E 010°18'0 0.0
2014-Oct-17 15:30N 43°33' E 010°18'0 0.0
2014-Oct-17 14:32N 43°33' E 010°18'0 0.0
2014-Oct-17 13:29N 43°33' E 010°18'0 0.0
2014-Oct-17 12:31N 43°33' E 010°18'0 0.0
2014-Oct-17 11:31N 43°33' E 010°18'0 0.0
2014-Oct-17 10:34N 43°33' E 010°18'0 0.0
2014-Oct-17 09:33N 43°33' E 010°18'0 0.0
2014-Oct-17 08:30N 43°33' E 010°18'0 0.0
2014-Oct-17 07:29N 43°33' E 010°18'0 0.0
2014-Oct-17 06:32N 43°33' E 010°18'0 0.0
2014-Oct-17 05:28N 43°33' E 010°18'0 0.0
2014-Oct-17 04:33N 43°33' E 010°18'6 6.0
2014-Oct-17 03:33N 43°30' E 010°11'1010.0
2014-Oct-17 02:33N 43°31' E 009°57'1010.4
2014-Oct-17 01:33N 43°32' E 009°43'1111.1
2014-Oct-17 00:33N 43°32' E 009°28'1111.0
2014-Oct-16 23:33N 43°33' E 009°12'1111.0
2014-Oct-16 22:33N 43°34' E 008°57'1110.7
2014-Oct-16 21:33N 43°35' E 008°43'1110.4
2014-Oct-16 20:33N 43°36' E 008°28'1110.2
2014-Oct-16 19:30N 43°37' E 008°13'1111.6
2014-Oct-16 18:33N 43°38' E 007°58'2914.4
2014-Oct-16 16:33N 43°41' E 007°19'0 0.1
2014-Oct-16 15:23N 43°41' E 007°19'0 0.0
2014-Oct-16 14:29N 43°41' E 007°19'0 0.0
2014-Oct-16 13:28N 43°41' E 007°19'0 0.1
2014-Oct-16 12:28N 43°41' E 007°19'0 0.0
2014-Oct-16 11:28N 43°41' E 007°19'0 0.0
2014-Oct-16 10:33N 43°41' E 007°19'0 0.0
2014-Oct-16 09:33N 43°41' E 007°19'0 0.0
2014-Oct-16 08:32N 43°41' E 007°19'0 0.0
2014-Oct-16 07:32N 43°41' E 007°19'0 0.1
2014-Oct-16 06:31N 43°41' E 007°19'0 0.0
2014-Oct-16 05:31N 43°41' E 007°19'3 2.6
2014-Oct-16 04:33N 43°39' E 007°18'10 9.8
2014-Oct-16 03:33N 43°30' E 007°12'10 9.9
2014-Oct-16 02:33N 43°22' E 007°04'10 9.8
2014-Oct-16 01:33N 43°14' E 006°56'10 9.8
2014-Oct-16 00:33N 43°06' E 006°49'9 9.4
2014-Oct-15 23:33N 42°59' E 006°40'13 9.7
2014-Oct-15 22:14N 42°54' E 006°24'7 9.5
2014-Oct-15 21:29N 42°53' E 006°15'9 9.5
2014-Oct-15 20:31N 42°53' E 006°02'9 9.3
2014-Oct-15 19:33N 42°57' E 005°51'10 9.5
2014-Oct-15 18:33N 43°01' E 005°39'19 9.4
2014-Oct-15 16:33N 43°12' E 005°18'8 8.3
2014-Oct-15 15:33N 43°20' E 005°17'2 0.2
2014-Oct-15 06:13N 43°21' E 005°20'1 1.2
2014-Oct-15 05:33N 43°21' E 005°19'10 9.7
2014-Oct-15 04:33N 43°14' E 005°10'1414.3
2014-Oct-15 03:33N 43°04' E 004°57'1414.0
2014-Oct-15 02:33N 42°53' E 004°44'9014.1
2014-Oct-14 20:10N 41°48' E 003°19'1014.1
2014-Oct-14 19:28N 41°43' E 003°08'1413.9
2014-Oct-14 18:27N 41°35' E 002°52'1414.5
2014-Oct-14 17:28N 41°28' E 002°36'20 6.5
2014-Oct-14 14:26N 41°22' E 002°11'0 0.0
2014-Oct-14 13:26N 41°22' E 002°11'0 0.0
2014-Oct-14 12:32N 41°22' E 002°11'10 1.0
2014-Oct-14 02:32N 41°14' E 002°19'2020.1
2014-Oct-14 01:34N 41°04' E 002°42'2120.4
2014-Oct-14 00:33N 40°54' E 003°05'2020.3
2014-Oct-13 23:33N 40°44' E 003°29'25519.1
2014-Oct-13 10:13N 38°42' E 008°19'1417.4
2014-Oct-13 09:26N 38°35' E 008°35'1517.5
2014-Oct-13 08:33N 38°28' E 008°52'1717.1
2014-Oct-13 07:33N 38°19' E 009°11'2017.2
2014-Oct-13 06:24N 38°10' E 009°33'1517.5
2014-Oct-13 05:33N 38°03' E 009°50'1817.9
2014-Oct-13 04:33N 37°54' E 010°10'1817.9
2014-Oct-13 03:32N 37°45' E 010°30'4218.6
2014-Oct-13 01:18N 37°25' E 011°16'1418.7
2014-Oct-13 00:32N 37°18' E 011°32'5618.4
2014-Oct-12 21:29N 36°53' E 012°34'1718.7
2014-Oct-12 20:33N 36°45' E 012°54'1918.8
2014-Oct-12 19:33N 36°35' E 013°14'2118.9
2014-Oct-12 18:28N 36°26' E 013°37'1718.7
2014-Oct-12 17:33N 36°18' E 013°55'1818.4
2014-Oct-12 16:33N 36°09' E 014°15'1817.6
2014-Oct-12 15:32N 35°57' E 014°32'2 0.2
2014-Oct-12 04:33N 35°54' E 014°33'1111.2
2014-Oct-12 03:33N 35°59' E 014°45'1414.0
2014-Oct-12 02:33N 36°03' E 015°02'1414.3
2014-Oct-12 01:33N 36°03' E 015°20'1914.1
2014-Oct-12 00:12N 36°04' E 015°43'37913.5
2014-Oct-10 20:04N 36°49' E 023°31'4813.7
2014-Oct-10 16:33N 37°36' E 023°42'1413.8
2014-Oct-10 15:34N 37°49' E 023°37'7 6.8
2014-Oct-10 14:32N 37°56' E 023°37'0 0.0
2014-Oct-10 13:28N 37°56' E 023°37'0 0.0
2014-Oct-10 12:31N 37°56' E 023°37'0 0.0
2014-Oct-10 11:33N 37°56' E 023°37'0 0.0
2014-Oct-10 10:33N 37°56' E 023°37'0 0.0
2014-Oct-10 09:32N 37°56' E 023°37'0 0.0
2014-Oct-10 08:32N 37°56' E 023°37'0 0.0
2014-Oct-10 07:32N 37°56' E 023°37'0 0.0
2014-Oct-10 06:31N 37°56' E 023°37'0 0.0
2014-Oct-10 05:31N 37°56' E 023°37'0 0.0
2014-Oct-10 04:33N 37°56' E 023°37'0 0.0
2014-Oct-10 03:33N 37°56' E 023°37'0 0.0
2014-Oct-10 02:32N 37°56' E 023°37'2 1.8
2014-Oct-10 01:33N 37°54' E 023°37'8 8.2
2014-Oct-10 00:34N 37°47' E 023°42'8 8.1
2014-Oct-09 23:34N 37°40' E 023°46'18 8.0
2014-Oct-09 21:16N 37°31' E 024°07'7 9.6
2014-Oct-09 20:33N 37°29' E 024°15'1010.4
2014-Oct-09 19:33N 37°31' E 024°28'9 9.4
2014-Oct-09 18:33N 37°32' E 024°40'9 9.1
2014-Oct-09 17:31N 37°33' E 024°51'9 9.0
2014-Oct-09 16:33N 37°31' E 025°02'10 9.9
2014-Oct-09 15:33N 37°29' E 025°14'4 4.0
2014-Oct-09 14:32N 37°28' E 025°19'0 0.0
2014-Oct-09 13:28N 37°28' E 025°19'0 0.0
2014-Oct-09 12:31N 37°28' E 025°19'0 0.0
2014-Oct-09 11:33N 37°28' E 025°19'0 0.0
2014-Oct-09 10:33N 37°28' E 025°19'0 0.0
2014-Oct-09 09:33N 37°28' E 025°19'0 0.0
2014-Oct-09 08:32N 37°28' E 025°19'0 0.0
2014-Oct-09 07:32N 37°28' E 025°19'0 0.0
2014-Oct-09 06:31N 37°28' E 025°19'0 0.0
2014-Oct-09 05:31N 37°28' E 025°19'0 0.0
2014-Oct-09 04:30N 37°28' E 025°19'0 0.0
2014-Oct-09 03:33N 37°28' E 025°19'3 2.9
2014-Oct-09 02:33N 37°30' E 025°18'9 9.1
2014-Oct-09 01:33N 37°35' E 025°27'9 8.7
2014-Oct-09 00:33N 37°40' E 025°37'8 8.4
2014-Oct-08 23:33N 37°45' E 025°46'17 8.6
2014-Oct-08 21:33N 37°53' E 026°05'27 8.9
2014-Oct-08 18:27N 37°54' E 026°39'9 9.0
2014-Oct-08 17:28N 37°54' E 026°51'8 8.5
2014-Oct-08 16:33N 37°53' E 027°00'31 1.9
2014-Oct-08 00:33N 37°39' E 026°25'1111.2
2014-Oct-07 23:33N 37°30' E 026°17'  
Track history (hours):
 
Tides and Currents Weather Stations Pressure Air Temp Water Temp Dewpoint Dewpoint Depression Visibility Wind Speed Wind Dir Waves Ship Positions

Celebrity Equinox

Last reported at 2014-Oct-17 23:28 UTC. Time now 2014-Oct-22 03:11 UTC.
Position N 42°26' E 010°33'.

Length 317 m; draft 9 m.

Type: Ship. MMSI: 249667000.

Date/timePositionNaut miles runAvg speedWind from/ knotsBaromVisibWave heightAir tempDewpointWater temp
2014-Oct-17 23:28N 42°26' E 010°33'2713.2
2014-Oct-17 21:25N 42°43' E 010°04'2912.7
2014-Oct-17 19:08N 43°12' E 010°07'813.3
2014-Oct-17 18:33N 43°19' E 010°09'1212.5
2014-Oct-17 17:33N 43°31' E 010°14'3 3.1
2014-Oct-17 16:30N 43°33' E 010°18'0 0.0
2014-Oct-17 15:30N 43°33' E 010°18'0 0.0
2014-Oct-17 14:32N 43°33' E 010°18'0 0.0
2014-Oct-17 13:29N 43°33' E 010°18'0 0.0
2014-Oct-17 12:31N 43°33' E 010°18'0 0.0
2014-Oct-17 11:31N 43°33' E 010°18'0 0.0
2014-Oct-17 10:34N 43°33' E 010°18'0 0.0
2014-Oct-17 09:33N 43°33' E 010°18'0 0.0
2014-Oct-17 08:30N 43°33' E 010°18'0 0.0
2014-Oct-17 07:29N 43°33' E 010°18'0 0.0
2014-Oct-17 06:32N 43°33' E 010°18'0 0.0
2014-Oct-17 05:28N 43°33' E 010°18'0 0.0
2014-Oct-17 04:33N 43°33' E 010°18'6 6.0
2014-Oct-17 03:33N 43°30' E 010°11'1010.0
2014-Oct-17 02:33N 43°31' E 009°57'1010.4
2014-Oct-17 01:33N 43°32' E 009°43'1111.1
2014-Oct-17 00:33N 43°32' E 009°28'1111.0
2014-Oct-16 23:33N 43°33' E 009°12'1111.0
2014-Oct-16 22:33N 43°34' E 008°57'1110.7
2014-Oct-16 21:33N 43°35' E 008°43'1110.4
2014-Oct-16 20:33N 43°36' E 008°28'1110.2
2014-Oct-16 19:30N 43°37' E 008°13'1111.6
2014-Oct-16 18:33N 43°38' E 007°58'2914.4
2014-Oct-16 16:33N 43°41' E 007°19'0 0.1
2014-Oct-16 15:23N 43°41' E 007°19'0 0.0
2014-Oct-16 14:29N 43°41' E 007°19'0 0.0
2014-Oct-16 13:28N 43°41' E 007°19'0 0.1
2014-Oct-16 12:28N 43°41' E 007°19'0 0.0
2014-Oct-16 11:28N 43°41' E 007°19'0 0.0
2014-Oct-16 10:33N 43°41' E 007°19'0 0.0
2014-Oct-16 09:33N 43°41' E 007°19'0 0.0
2014-Oct-16 08:32N 43°41' E 007°19'0 0.0
2014-Oct-16 07:32N 43°41' E 007°19'0 0.1
2014-Oct-16 06:31N 43°41' E 007°19'0 0.0
2014-Oct-16 05:31N 43°41' E 007°19'3 2.6
2014-Oct-16 04:33N 43°39' E 007°18'10 9.8
2014-Oct-16 03:33N 43°30' E 007°12'10 9.9
2014-Oct-16 02:33N 43°22' E 007°04'10 9.8
2014-Oct-16 01:33N 43°14' E 006°56'10 9.8
2014-Oct-16 00:33N 43°06' E 006°49'9 9.4
2014-Oct-15 23:33N 42°59' E 006°40'13 9.7
2014-Oct-15 22:14N 42°54' E 006°24'7 9.5
2014-Oct-15 21:29N 42°53' E 006°15'9 9.5
2014-Oct-15 20:31N 42°53' E 006°02'9 9.3
2014-Oct-15 19:33N 42°57' E 005°51'10 9.5
2014-Oct-15 18:33N 43°01' E 005°39'19 9.4
2014-Oct-15 16:33N 43°12' E 005°18'8 8.3
2014-Oct-15 15:33N 43°20' E 005°17'2 0.2
2014-Oct-15 06:13N 43°21' E 005°20'1 1.2
2014-Oct-15 05:33N 43°21' E 005°19'10 9.7
2014-Oct-15 04:33N 43°14' E 005°10'1414.3
2014-Oct-15 03:33N 43°04' E 004°57'1414.0
2014-Oct-15 02:33N 42°53' E 004°44'9014.1
2014-Oct-14 20:10N 41°48' E 003°19'1014.1
2014-Oct-14 19:28N 41°43' E 003°08'1413.9
2014-Oct-14 18:27N 41°35' E 002°52'1414.5
2014-Oct-14 17:28N 41°28' E 002°36'20 6.5
2014-Oct-14 14:26N 41°22' E 002°11'0 0.0
2014-Oct-14 13:26N 41°22' E 002°11'0 0.0
2014-Oct-14 12:32N 41°22' E 002°11'10 1.0
2014-Oct-14 02:32N 41°14' E 002°19'2020.1
2014-Oct-14 01:34N 41°04' E 002°42'2120.4
2014-Oct-14 00:33N 40°54' E 003°05'2020.3
2014-Oct-13 23:33N 40°44' E 003°29'25519.1
2014-Oct-13 10:13N 38°42' E 008°19'1417.4
2014-Oct-13 09:26N 38°35' E 008°35'1517.5
2014-Oct-13 08:33N 38°28' E 008°52'1717.1
2014-Oct-13 07:33N 38°19' E 009°11'2017.2
2014-Oct-13 06:24N 38°10' E 009°33'1517.5
2014-Oct-13 05:33N 38°03' E 009°50'1817.9
2014-Oct-13 04:33N 37°54' E 010°10'1817.9
2014-Oct-13 03:32N 37°45' E 010°30'4218.6
2014-Oct-13 01:18N 37°25' E 011°16'1418.7
2014-Oct-13 00:32N 37°18' E 011°32'5618.4
2014-Oct-12 21:29N 36°53' E 012°34'1718.7
2014-Oct-12 20:33N 36°45' E 012°54'1918.8
2014-Oct-12 19:33N 36°35' E 013°14'2118.9
2014-Oct-12 18:28N 36°26' E 013°37'1718.7
2014-Oct-12 17:33N 36°18' E 013°55'1818.4
2014-Oct-12 16:33N 36°09' E 014°15'1817.6
2014-Oct-12 15:32N 35°57' E 014°32'2 0.2
2014-Oct-12 04:33N 35°54' E 014°33'1111.2
2014-Oct-12 03:33N 35°59' E 014°45'1414.0
2014-Oct-12 02:33N 36°03' E 015°02'1414.3
2014-Oct-12 01:33N 36°03' E 015°20'1914.1
2014-Oct-12 00:12N 36°04' E 015°43'37913.5
2014-Oct-10 20:04N 36°49' E 023°31'4813.7
2014-Oct-10 16:33N 37°36' E 023°42'1413.8
2014-Oct-10 15:34N 37°49' E 023°37'7 6.8
2014-Oct-10 14:32N 37°56' E 023°37'0 0.0
2014-Oct-10 13:28N 37°56' E 023°37'0 0.0
2014-Oct-10 12:31N 37°56' E 023°37'0 0.0
2014-Oct-10 11:33N 37°56' E 023°37'0 0.0
2014-Oct-10 10:33N 37°56' E 023°37'0 0.0
2014-Oct-10 09:32N 37°56' E 023°37'0 0.0
2014-Oct-10 08:32N 37°56' E 023°37'0 0.0
2014-Oct-10 07:32N 37°56' E 023°37'0 0.0
2014-Oct-10 06:31N 37°56' E 023°37'0 0.0
2014-Oct-10 05:31N 37°56' E 023°37'0 0.0
2014-Oct-10 04:33N 37°56' E 023°37'0 0.0
2014-Oct-10 03:33N 37°56' E 023°37'0 0.0
2014-Oct-10 02:32N 37°56' E 023°37'2 1.8
2014-Oct-10 01:33N 37°54' E 023°37'8 8.2
2014-Oct-10 00:34N 37°47' E 023°42'8 8.1
2014-Oct-09 23:34N 37°40' E 023°46'18 8.0
2014-Oct-09 21:16N 37°31' E 024°07'7 9.6
2014-Oct-09 20:33N 37°29' E 024°15'1010.4
2014-Oct-09 19:33N 37°31' E 024°28'9 9.4
2014-Oct-09 18:33N 37°32' E 024°40'9 9.1
2014-Oct-09 17:31N 37°33' E 024°51'9 9.0
2014-Oct-09 16:33N 37°31' E 025°02'10 9.9
2014-Oct-09 15:33N 37°29' E 025°14'4 4.0
2014-Oct-09 14:32N 37°28' E 025°19'0 0.0
2014-Oct-09 13:28N 37°28' E 025°19'0 0.0
2014-Oct-09 12:31N 37°28' E 025°19'0 0.0
2014-Oct-09 11:33N 37°28' E 025°19'0 0.0
2014-Oct-09 10:33N 37°28' E 025°19'0 0.0
2014-Oct-09 09:33N 37°28' E 025°19'0 0.0
2014-Oct-09 08:32N 37°28' E 025°19'0 0.0
2014-Oct-09 07:32N 37°28' E 025°19'0 0.0
2014-Oct-09 06:31N 37°28' E 025°19'0 0.0
2014-Oct-09 05:31N 37°28' E 025°19'0 0.0
2014-Oct-09 04:30N 37°28' E 025°19'0 0.0
2014-Oct-09 03:33N 37°28' E 025°19'3 2.9
2014-Oct-09 02:33N 37°30' E 025°18'9 9.1
2014-Oct-09 01:33N 37°35' E 025°27'9 8.7
2014-Oct-09 00:33N 37°40' E 025°37'8 8.4
2014-Oct-08 23:33N 37°45' E 025°46'17 8.6
2014-Oct-08 21:33N 37°53' E 026°05'27 8.9
2014-Oct-08 18:27N 37°54' E 026°39'9 9.0
2014-Oct-08 17:28N 37°54' E 026°51'8 8.5
2014-Oct-08 16:33N 37°53' E 027°00'31 1.9
2014-Oct-08 00:33N 37°39' E 026°25'1111.2
2014-Oct-07 23:33N 37°30' E 026°17'  

Dump ship's entire track history